createdAt,value
2018-11-02T00:00:07.378Z,6.26
2018-11-02T00:01:06.711Z,6.27
2018-11-02T00:02:08.189Z,6.28
2018-11-02T00:03:06.753Z,6.24
2018-11-02T00:04:07.114Z,6.2
2018-11-02T00:05:06.600Z,6.23
2018-11-02T00:06:07.096Z,6.24
2018-11-02T00:07:06.799Z,6.21
2018-11-02T00:08:06.623Z,6.14
2018-11-02T00:09:06.699Z,6.14
2018-11-02T00:10:06.807Z,6.19
2018-11-02T00:11:06.806Z,6.13
2018-11-02T00:12:08.213Z,6.1
2018-11-02T00:13:06.842Z,6.13
2018-11-02T00:14:06.765Z,6.12
2018-11-02T00:15:06.599Z,6.15
2018-11-02T00:16:06.615Z,6.1
2018-11-02T00:17:06.758Z,6.08
2018-11-02T00:18:07.015Z,6.06
2018-11-02T00:19:06.643Z,6.05
2018-11-02T00:20:07.024Z,6.01
2018-11-02T00:21:06.849Z,5.99
2018-11-02T00:22:07.633Z,5.98
2018-11-02T00:23:06.696Z,5.99
2018-11-02T00:24:06.805Z,6.02
2018-11-02T00:25:06.631Z,6
2018-11-02T00:26:06.689Z,6.1
2018-11-02T00:27:06.845Z,6.06
2018-11-02T00:28:06.710Z,6.05
2018-11-02T00:29:06.784Z,6
2018-11-02T00:30:06.708Z,6.04
2018-11-02T00:31:06.863Z,6.15
2018-11-02T00:32:07.808Z,6.15
2018-11-02T00:33:06.943Z,6.12
2018-11-02T00:34:06.680Z,6.12
2018-11-02T00:35:06.687Z,6.08
2018-11-02T00:36:06.805Z,5.99
2018-11-02T00:37:06.828Z,5.98
2018-11-02T00:38:06.857Z,6.01
2018-11-02T00:39:06.971Z,5.96
2018-11-02T00:40:06.639Z,5.97
2018-11-02T00:41:06.923Z,6.01
2018-11-02T00:42:06.660Z,5.81
2018-11-02T00:43:08.169Z,5.95
2018-11-02T00:44:07.375Z,5.91
2018-11-02T00:45:06.648Z,6
2018-11-02T00:46:06.791Z,5.99
2018-11-02T00:47:06.832Z,6
2018-11-02T00:48:06.675Z,5.94
2018-11-02T00:49:06.732Z,5.96
2018-11-02T00:50:06.873Z,5.94
2018-11-02T00:51:06.708Z,5.92
2018-11-02T00:52:06.656Z,5.9
2018-11-02T00:53:07.765Z,5.9
2018-11-02T00:54:06.675Z,5.83
2018-11-02T00:55:06.946Z,5.79
2018-11-02T00:56:06.567Z,5.78
2018-11-02T00:57:06.625Z,5.8
2018-11-02T00:58:06.568Z,5.77
2018-11-02T00:59:06.700Z,5.82
2018-11-02T01:00:06.910Z,5.77
2018-11-02T01:01:06.936Z,5.76
2018-11-02T01:02:06.671Z,5.8
2018-11-02T01:03:07.014Z,5.76
2018-11-02T01:04:06.983Z,5.86
2018-11-02T01:05:06.579Z,5.86
2018-11-02T01:06:06.564Z,5.88
2018-11-02T01:07:06.565Z,5.88
2018-11-02T01:08:06.597Z,5.88
2018-11-02T01:09:06.778Z,5.84
2018-11-02T01:10:06.548Z,5.82
2018-11-02T01:11:06.571Z,5.9
2018-11-02T01:12:06.567Z,5.88
2018-11-02T01:13:07.167Z,5.88
2018-11-02T01:14:06.541Z,5.91
2018-11-02T01:15:06.601Z,5.9
2018-11-02T01:16:06.516Z,5.86
2018-11-02T01:17:06.596Z,5.84
2018-11-02T01:18:06.521Z,5.83
2018-11-02T01:19:06.708Z,5.79
2018-11-02T01:20:06.551Z,5.8
2018-11-02T01:21:06.674Z,5.8
2018-11-02T01:22:06.716Z,5.89
2018-11-02T01:23:06.524Z,5.9
2018-11-02T01:24:06.515Z,5.82
2018-11-02T01:25:06.572Z,5.82
2018-11-02T01:26:06.619Z,5.8
2018-11-02T01:27:06.756Z,5.78
2018-11-02T01:28:06.532Z,5.76
2018-11-02T01:29:06.699Z,5.76
2018-11-02T01:30:06.750Z,5.75
2018-11-02T01:31:06.817Z,5.75
2018-11-02T01:32:06.782Z,5.76
2018-11-02T01:33:06.587Z,5.75
2018-11-02T01:34:08.107Z,5.71
2018-11-02T01:35:06.543Z,5.75
2018-11-02T01:36:06.545Z,5.71
2018-11-02T01:37:06.541Z,5.69
2018-11-02T01:38:06.837Z,5.7
2018-11-02T01:39:06.505Z,5.71
2018-11-02T01:40:06.558Z,5.7
2018-11-02T01:41:06.592Z,5.63
2018-11-02T01:42:06.652Z,5.64
2018-11-02T01:43:06.671Z,5.58
2018-11-02T01:44:08.070Z,5.53
2018-11-02T01:45:06.570Z,5.53
2018-11-02T01:46:06.591Z,5.55
2018-11-02T01:47:06.533Z,5.49
2018-11-02T01:48:06.507Z,5.48
2018-11-02T01:49:06.503Z,5.48
2018-11-02T01:50:06.489Z,5.42
2018-11-02T01:51:06.858Z,5.43
2018-11-02T01:52:07.314Z,5.45
2018-11-02T01:53:06.933Z,5.47
2018-11-02T01:54:07.218Z,5.45
2018-11-02T01:55:06.510Z,5.47
2018-11-02T01:56:06.482Z,5.45
2018-11-02T01:57:06.450Z,5.45
2018-11-02T01:58:06.666Z,5.44
2018-11-02T01:59:06.565Z,5.43
2018-11-02T02:00:06.504Z,5.46
2018-11-02T02:01:06.521Z,5.55
2018-11-02T02:02:06.454Z,5.53
2018-11-02T02:03:06.629Z,5.6
2018-11-02T02:04:06.509Z,5.63
2018-11-02T02:05:06.488Z,5.61
2018-11-02T02:06:06.464Z,5.54
2018-11-02T02:07:07.277Z,5.48
2018-11-02T02:08:06.496Z,5.5
2018-11-02T02:09:06.547Z,5.47
2018-11-02T02:10:06.504Z,5.47
2018-11-02T02:11:07.237Z,5.45
2018-11-02T02:12:06.492Z,5.45
2018-11-02T02:13:07.048Z,5.49
2018-11-02T02:14:06.541Z,5.5
2018-11-02T02:15:07.776Z,5.53
2018-11-02T02:16:06.648Z,5.51
2018-11-02T02:17:06.829Z,5.48
2018-11-02T02:18:06.536Z,5.48
2018-11-02T02:19:06.606Z,5.51
2018-11-02T02:20:06.545Z,5.5
2018-11-02T02:21:06.500Z,5.5
2018-11-02T02:22:06.466Z,5.48
2018-11-02T02:23:06.522Z,5.45
2018-11-02T02:24:06.541Z,5.52
2018-11-02T02:25:07.533Z,5.6
2018-11-02T02:26:06.764Z,5.59
2018-11-02T02:27:06.542Z,5.62
2018-11-02T02:28:06.447Z,5.67
2018-11-02T02:29:06.580Z,5.71
2018-11-02T02:30:06.653Z,5.76
2018-11-02T02:31:06.533Z,5.72
2018-11-02T02:32:06.610Z,5.74
2018-11-02T02:33:06.392Z,5.73
2018-11-02T02:34:06.847Z,5.76
2018-11-02T02:35:06.639Z,5.73
2018-11-02T02:36:06.597Z,5.75
2018-11-02T02:37:06.561Z,5.74
2018-11-02T02:38:06.678Z,5.72
2018-11-02T02:39:06.419Z,5.67
2018-11-02T02:40:06.802Z,5.64
2018-11-02T02:41:06.714Z,5.67
2018-11-02T02:42:06.394Z,5.65
2018-11-02T02:43:06.391Z,5.63
2018-11-02T02:44:06.867Z,5.59
2018-11-02T02:45:06.435Z,5.59
2018-11-02T02:46:06.396Z,5.62
2018-11-02T02:47:06.406Z,5.63
2018-11-02T02:48:06.436Z,5.62
2018-11-02T02:49:06.508Z,5.56
2018-11-02T02:50:06.572Z,5.5
2018-11-02T02:51:06.419Z,5.49
2018-11-02T02:52:06.388Z,5.41
2018-11-02T02:53:06.453Z,5.4
2018-11-02T02:54:06.393Z,5.37
2018-11-02T02:55:06.516Z,5.35
2018-11-02T02:56:07.836Z,5.39
2018-11-02T02:57:06.399Z,5.36
2018-11-02T02:58:06.618Z,5.35
2018-11-02T02:59:06.405Z,5.35
2018-11-02T03:00:06.434Z,5.34
2018-11-02T03:01:06.801Z,5.29
2018-11-02T03:02:06.618Z,5.28
2018-11-02T03:03:06.672Z,5.27
2018-11-02T03:04:06.505Z,5.27
2018-11-02T03:05:06.545Z,5.24
2018-11-02T03:06:07.825Z,5.26
2018-11-02T03:07:06.390Z,5.25
2018-11-02T03:08:06.581Z,5.23
2018-11-02T03:09:06.541Z,5.24
2018-11-02T03:10:06.455Z,5.24
2018-11-02T03:11:08.393Z,5.29
2018-11-02T03:12:06.518Z,5.3
2018-11-02T03:13:06.435Z,5.34
2018-11-02T03:14:06.347Z,5.32
2018-11-02T03:15:06.487Z,5.33
2018-11-02T03:16:07.578Z,5.37
2018-11-02T03:17:06.355Z,5.37
2018-11-02T03:18:06.610Z,5.36
2018-11-02T03:19:06.410Z,5.37
2018-11-02T03:20:06.543Z,5.33
2018-11-02T03:21:06.410Z,5.39
2018-11-02T03:22:06.524Z,5.39
2018-11-02T03:23:06.334Z,5.43
2018-11-02T03:24:06.451Z,5.45
2018-11-02T03:25:06.778Z,5.49
2018-11-02T03:26:07.753Z,5.5
2018-11-02T03:27:06.388Z,5.47
2018-11-02T03:28:06.433Z,5.49
2018-11-02T03:29:06.397Z,5.52
2018-11-02T03:30:06.697Z,5.52
2018-11-02T03:31:06.641Z,5.49
2018-11-02T03:32:06.759Z,5.53
2018-11-02T03:33:06.469Z,5.51
2018-11-02T03:34:06.480Z,5.55
2018-11-02T03:35:06.331Z,5.55
2018-11-02T03:36:07.616Z,5.62
2018-11-02T03:37:06.352Z,5.63
2018-11-02T03:38:06.398Z,5.64
2018-11-02T03:39:06.478Z,5.59
2018-11-02T03:40:06.489Z,5.61
2018-11-02T03:41:06.385Z,5.56
2018-11-02T03:42:06.319Z,5.55
2018-11-02T03:43:06.341Z,5.55
2018-11-02T03:44:06.381Z,5.58
2018-11-02T03:45:06.333Z,5.57
2018-11-02T03:46:07.788Z,5.55
2018-11-02T03:47:06.461Z,5.56
2018-11-02T03:48:06.361Z,5.62
2018-11-02T03:49:06.575Z,5.69
2018-11-02T03:50:06.410Z,5.69
2018-11-02T03:51:06.462Z,5.72
2018-11-02T03:52:06.434Z,5.74
2018-11-02T03:53:06.440Z,5.75
2018-11-02T03:54:06.306Z,5.75
2018-11-02T03:55:06.398Z,5.75
2018-11-02T03:56:07.296Z,5.82
2018-11-02T03:57:06.378Z,5.75
2018-11-02T03:58:06.399Z,5.72
2018-11-02T03:59:06.414Z,5.76
2018-11-02T04:00:06.368Z,5.8
2018-11-02T04:01:06.418Z,5.84
2018-11-02T04:02:06.340Z,5.85
2018-11-02T04:03:06.323Z,5.83
2018-11-02T04:04:06.688Z,5.89
2018-11-02T04:05:06.479Z,5.85
2018-11-02T04:06:06.392Z,5.8
2018-11-02T04:07:06.433Z,5.84
2018-11-02T04:08:06.273Z,5.9
2018-11-02T04:09:06.315Z,5.91
2018-11-02T04:10:06.397Z,5.97
2018-11-02T04:11:06.396Z,5.94
2018-11-02T04:12:06.372Z,5.89
2018-11-02T04:13:06.283Z,5.82
2018-11-02T04:14:06.290Z,5.86
2018-11-02T04:15:06.266Z,5.88
2018-11-02T04:16:06.267Z,5.94
2018-11-02T04:17:06.363Z,5.91
2018-11-02T04:18:06.312Z,5.94
2018-11-02T04:19:06.294Z,5.9
2018-11-02T04:20:06.342Z,5.95
2018-11-02T04:21:06.310Z,5.95
2018-11-02T04:22:06.275Z,5.94
2018-11-02T04:23:06.239Z,5.96
2018-11-02T04:24:06.362Z,5.95
2018-11-02T04:25:06.303Z,5.95
2018-11-02T04:26:06.392Z,5.95
2018-11-02T04:27:07.776Z,5.95
2018-11-02T04:28:06.303Z,5.93
2018-11-02T04:29:06.252Z,5.9
2018-11-02T04:30:06.264Z,5.95
2018-11-02T04:31:07.497Z,6.03
2018-11-02T04:32:06.452Z,6.03
2018-11-02T04:33:06.423Z,6.11
2018-11-02T04:34:06.307Z,6.02
2018-11-02T04:35:06.405Z,6
2018-11-02T04:36:06.408Z,5.96
2018-11-02T04:37:07.434Z,6.01
2018-11-02T04:38:06.409Z,5.96
2018-11-02T04:39:06.778Z,5.99
2018-11-02T04:40:06.304Z,5.99
2018-11-02T04:41:06.380Z,5.97
2018-11-02T04:42:06.521Z,5.95
2018-11-02T04:43:06.214Z,5.94
2018-11-02T04:44:06.476Z,5.94
2018-11-02T04:45:06.569Z,5.93
2018-11-02T04:46:06.301Z,5.94
2018-11-02T04:47:06.667Z,5.95
2018-11-02T04:48:06.221Z,5.93
2018-11-02T04:49:06.371Z,5.93
2018-11-02T04:50:06.303Z,5.98
2018-11-02T04:51:07.209Z,5.94
2018-11-02T04:52:06.599Z,5.94
2018-11-02T04:53:06.394Z,5.93
2018-11-02T04:54:06.407Z,6.01
2018-11-02T04:55:06.189Z,6.05
2018-11-02T04:56:07.578Z,6.02
2018-11-02T04:57:06.515Z,6.04
2018-11-02T04:58:06.315Z,6.07
2018-11-02T04:59:06.259Z,6.07
2018-11-02T05:00:06.419Z,6.1
2018-11-02T05:01:06.309Z,6.07
2018-11-02T05:02:06.342Z,6.04
2018-11-02T05:03:06.266Z,6.03
2018-11-02T05:04:06.232Z,6.03
2018-11-02T05:05:06.253Z,6.02
2018-11-02T05:06:06.164Z,5.97
2018-11-02T05:07:06.258Z,6.01
2018-11-02T05:08:09.089Z,5.99
2018-11-02T05:09:06.343Z,6.01
2018-11-02T05:10:06.546Z,5.95
2018-11-02T05:11:06.503Z,5.99
2018-11-02T05:12:06.209Z,5.99
2018-11-02T05:13:06.302Z,6.05
2018-11-02T05:14:06.291Z,5.98
2018-11-02T05:15:06.193Z,5.97
2018-11-02T05:16:06.349Z,5.92
2018-11-02T05:17:06.446Z,5.9
2018-11-02T05:18:07.625Z,5.91
2018-11-02T05:19:06.175Z,5.97
2018-11-02T05:20:06.372Z,6
2018-11-02T05:21:06.740Z,5.96
2018-11-02T05:22:06.210Z,5.91
2018-11-02T05:23:06.433Z,5.92
2018-11-02T05:24:06.261Z,5.91
2018-11-02T05:25:06.343Z,5.91
2018-11-02T05:26:07.092Z,5.86
2018-11-02T05:27:06.181Z,5.85
2018-11-02T05:28:07.595Z,5.82
2018-11-02T05:29:06.201Z,5.82
2018-11-02T05:30:06.157Z,5.78
2018-11-02T05:31:06.262Z,5.76
2018-11-02T05:32:06.156Z,5.8
2018-11-02T05:33:06.371Z,5.76
2018-11-02T05:34:06.172Z,5.71
2018-11-02T05:35:06.320Z,5.72
2018-11-02T05:36:06.294Z,5.71
2018-11-02T05:37:06.154Z,5.73
2018-11-02T05:38:06.183Z,5.72
2018-11-02T05:39:06.175Z,5.66
2018-11-02T05:40:06.516Z,5.68
2018-11-02T05:41:06.129Z,5.66
2018-11-02T05:42:06.136Z,5.72
2018-11-02T05:43:06.167Z,5.74
2018-11-02T05:44:06.166Z,5.71
2018-11-02T05:45:06.286Z,5.76
2018-11-02T05:46:06.160Z,5.73
2018-11-02T05:47:06.392Z,5.73
2018-11-02T05:48:06.114Z,5.74
2018-11-02T05:49:06.178Z,5.73
2018-11-02T05:50:06.159Z,5.71
2018-11-02T05:51:06.228Z,5.7
2018-11-02T05:52:06.212Z,5.67
2018-11-02T05:53:06.188Z,5.7
2018-11-02T05:54:06.982Z,5.64
2018-11-02T05:55:06.194Z,5.64
2018-11-02T05:56:06.237Z,5.68
2018-11-02T05:57:06.509Z,5.64
2018-11-02T05:58:06.102Z,5.59
2018-11-02T05:59:08.226Z,5.6
2018-11-02T06:00:06.364Z,5.54
2018-11-02T06:01:06.100Z,5.54
2018-11-02T06:02:06.115Z,5.52
2018-11-02T06:03:06.150Z,5.48
2018-11-02T06:04:06.385Z,5.47
2018-11-02T06:05:06.114Z,5.45
2018-11-02T06:06:06.189Z,5.44
2018-11-02T06:07:06.168Z,5.47
2018-11-02T06:08:07.333Z,5.54
2018-11-02T06:09:07.378Z,5.59
2018-11-02T06:10:06.123Z,5.56
2018-11-02T06:11:06.179Z,5.54
2018-11-02T06:12:06.214Z,5.54
2018-11-02T06:13:06.591Z,5.56
2018-11-02T06:14:06.344Z,5.57
2018-11-02T06:15:06.112Z,5.62
2018-11-02T06:16:06.228Z,5.57
2018-11-02T06:17:06.282Z,5.61
2018-11-02T06:18:06.092Z,5.59
2018-11-02T06:19:06.936Z,5.56
2018-11-02T06:20:06.093Z,5.58
2018-11-02T06:21:06.134Z,5.53
2018-11-02T06:22:06.069Z,5.53
2018-11-02T06:23:06.177Z,5.53
2018-11-02T06:24:06.577Z,5.52
2018-11-02T06:25:06.117Z,5.5
2018-11-02T06:26:06.071Z,5.49
2018-11-02T06:27:06.082Z,5.47
2018-11-02T06:28:06.499Z,5.43
2018-11-02T06:29:06.218Z,5.38
2018-11-02T06:30:06.054Z,5.27
2018-11-02T06:31:06.138Z,5.26
2018-11-02T06:32:06.211Z,5.18
2018-11-02T06:33:06.152Z,5.21
2018-11-02T06:34:06.238Z,5.21
2018-11-02T06:35:06.039Z,5.24
2018-11-02T06:36:06.098Z,5.23
2018-11-02T06:37:06.206Z,5.26
2018-11-02T06:38:06.325Z,5.24
2018-11-02T06:39:06.235Z,5.23
2018-11-02T06:40:07.598Z,5.22
2018-11-02T06:41:06.283Z,5.19
2018-11-02T06:42:06.153Z,5.15
2018-11-02T06:43:06.670Z,5.11
2018-11-02T06:44:06.290Z,5.08
2018-11-02T06:45:07.003Z,5.11
2018-11-02T06:46:06.105Z,5.13
2018-11-02T06:47:06.048Z,5.12
2018-11-02T06:48:06.130Z,5.1
2018-11-02T06:49:06.083Z,5.15
2018-11-02T06:50:06.378Z,5.15
2018-11-02T06:51:07.164Z,5.17
2018-11-02T06:52:06.018Z,5.15
2018-11-02T06:53:06.189Z,5.14
2018-11-02T06:54:06.211Z,5.1
2018-11-02T06:55:06.460Z,5.1
2018-11-02T06:56:06.112Z,5.16
2018-11-02T06:57:06.359Z,5.15
2018-11-02T06:58:06.160Z,5.13
2018-11-02T06:59:06.969Z,5.17
2018-11-02T07:00:08.385Z,5.15
2018-11-02T07:01:06.830Z,5.13
2018-11-02T07:02:06.192Z,5.18
2018-11-02T07:03:06.036Z,5.11
2018-11-02T07:04:06.042Z,5.15
2018-11-02T07:05:06.217Z,5.12
2018-11-02T07:06:06.200Z,5.17
2018-11-02T07:07:06.728Z,5.15
2018-11-02T07:08:07.815Z,5.21
2018-11-02T07:09:06.240Z,5.22
2018-11-02T07:10:06.049Z,5.21
2018-11-02T07:11:07.515Z,5.26
2018-11-02T07:12:06.091Z,5.27
2018-11-02T07:13:06.212Z,5.28
2018-11-02T07:14:06.046Z,5.31
2018-11-02T07:15:06.343Z,5.29
2018-11-02T07:16:06.075Z,5.31
2018-11-02T07:17:06.518Z,5.3
2018-11-02T07:18:06.070Z,5.3
2018-11-02T07:19:06.104Z,5.43
2018-11-02T07:20:06.044Z,5.46
2018-11-02T07:21:06.714Z,5.48
2018-11-02T07:22:05.986Z,5.45
2018-11-02T07:23:06.176Z,5.4
2018-11-02T07:24:06.311Z,5.48
2018-11-02T07:25:06.817Z,5.48
2018-11-02T07:26:06.160Z,5.5
2018-11-02T07:27:06.180Z,5.58
2018-11-02T07:28:06.012Z,5.52
2018-11-02T07:29:06.011Z,5.6
2018-11-02T07:30:05.992Z,5.58
2018-11-02T07:31:06.030Z,5.63
2018-11-02T07:32:07.562Z,5.65
2018-11-02T07:33:06.143Z,5.78
2018-11-02T07:34:06.472Z,5.77
2018-11-02T07:35:06.061Z,5.85
2018-11-02T07:36:06.069Z,5.88
2018-11-02T07:37:06.982Z,5.93
2018-11-02T07:38:06.132Z,5.96
2018-11-02T07:39:06.016Z,5.94
2018-11-02T07:40:06.062Z,5.97
2018-11-02T07:41:06.036Z,6.06
2018-11-02T07:42:07.123Z,6.04
2018-11-02T07:43:06.179Z,5.96
2018-11-02T07:44:06.092Z,6.09
2018-11-02T07:45:05.990Z,6.15
2018-11-02T07:46:06.104Z,6.18
2018-11-02T07:47:06.015Z,6.19
2018-11-02T07:48:05.931Z,6.23
2018-11-02T07:49:06.189Z,6.23
2018-11-02T07:50:05.998Z,6.26
2018-11-02T07:51:06.099Z,6.22
2018-11-02T07:52:06.074Z,6.17
2018-11-02T07:53:06.259Z,6.28
2018-11-02T07:54:06.086Z,6.39
2018-11-02T07:55:06.193Z,6.36
2018-11-02T07:56:06.091Z,6.35
2018-11-02T07:57:06.050Z,6.48
2018-11-02T07:58:06.059Z,6.48
2018-11-02T07:59:06.259Z,6.54
2018-11-02T08:00:06.204Z,6.61
2018-11-02T08:01:06.115Z,6.67
2018-11-02T08:02:06.029Z,6.7
2018-11-02T08:03:07.485Z,6.74
2018-11-02T08:04:06.189Z,6.8
2018-11-02T08:05:06.016Z,6.82
2018-11-02T08:06:06.045Z,6.85
2018-11-02T08:07:06.076Z,6.88
2018-11-02T08:08:06.061Z,6.83
2018-11-02T08:09:06.052Z,6.83
2018-11-02T08:10:06.162Z,6.88
2018-11-02T08:11:06.037Z,6.87
2018-11-02T08:12:05.999Z,6.9
2018-11-02T08:13:07.142Z,6.99
2018-11-02T08:14:06.172Z,6.96
2018-11-02T08:15:06.005Z,7.11
2018-11-02T08:16:05.890Z,7.13
2018-11-02T08:17:05.900Z,7.14
2018-11-02T08:18:05.974Z,7.16
2018-11-02T08:19:07.446Z,7.17
2018-11-02T08:20:06.117Z,7.12
2018-11-02T08:21:06.124Z,7.16
2018-11-02T08:22:05.970Z,7.14
2018-11-02T08:23:06.137Z,7.22
2018-11-02T08:24:05.971Z,7.23
2018-11-02T08:25:05.879Z,7.26
2018-11-02T08:26:06.007Z,7.21
2018-11-02T08:27:05.994Z,7.22
2018-11-02T08:28:06.074Z,7.24
2018-11-02T08:29:06.237Z,7.32
2018-11-02T08:30:06.082Z,7.31
2018-11-02T08:31:06.087Z,7.39
2018-11-02T08:32:06.499Z,7.35
2018-11-02T08:33:05.896Z,7.37
2018-11-02T08:34:05.911Z,7.34
2018-11-02T08:35:05.951Z,7.39
2018-11-02T08:36:05.902Z,7.36
2018-11-02T08:37:06.165Z,7.34
2018-11-02T08:38:06.133Z,7.42
2018-11-02T08:39:05.951Z,7.45
2018-11-02T08:40:06.159Z,7.5
2018-11-02T08:41:05.969Z,7.5
2018-11-02T08:42:05.865Z,7.49
2018-11-02T08:43:06.080Z,7.51
2018-11-02T08:44:06.028Z,7.54
2018-11-02T08:45:06.006Z,7.62
2018-11-02T08:46:06.199Z,7.67
2018-11-02T08:47:05.976Z,7.69
2018-11-02T08:48:06.118Z,7.69
2018-11-02T08:49:05.947Z,7.74
2018-11-02T08:50:06.125Z,7.72
2018-11-02T08:51:05.931Z,7.76
2018-11-02T08:52:06.155Z,7.73
2018-11-02T08:53:05.894Z,7.78
2018-11-02T08:54:05.923Z,7.83
2018-11-02T08:55:06.480Z,7.78
2018-11-02T08:56:05.964Z,7.77
2018-11-02T08:57:06.204Z,7.87
2018-11-02T08:58:08.374Z,7.9
2018-11-02T08:59:06.770Z,7.93
2018-11-02T09:00:06.512Z,7.81
2018-11-02T09:01:06.103Z,7.81
2018-11-02T09:02:06.697Z,7.77
2018-11-02T09:03:06.119Z,7.81
2018-11-02T09:04:06.135Z,7.92
2018-11-02T09:05:06.627Z,7.95
2018-11-02T09:06:06.138Z,7.98
2018-11-02T09:07:05.997Z,7.94
2018-11-02T09:08:05.863Z,7.96
2018-11-02T09:09:05.992Z,7.95
2018-11-02T09:10:06.073Z,8.03
2018-11-02T09:11:05.820Z,8.04
2018-11-02T09:12:06.509Z,7.94
2018-11-02T09:13:06.390Z,7.8
2018-11-02T09:14:05.839Z,7.76
2018-11-02T09:15:06.185Z,7.82
2018-11-02T09:16:05.939Z,7.9
2018-11-02T09:17:05.990Z,7.92
2018-11-02T09:18:05.862Z,8.08
2018-11-02T09:19:06.020Z,7.98
2018-11-02T09:20:05.854Z,8.01
2018-11-02T09:21:05.892Z,8.13
2018-11-02T09:22:05.976Z,8.14
2018-11-02T09:23:06.123Z,8.16
2018-11-02T09:24:05.990Z,8.14
2018-11-02T09:25:05.839Z,8.2
2018-11-02T09:26:06.122Z,8.18
2018-11-02T09:27:06.263Z,8.18
2018-11-02T09:28:07.426Z,8.19
2018-11-02T09:29:06.104Z,8.19
2018-11-02T09:30:05.968Z,8.16
2018-11-02T09:31:05.871Z,8.16
2018-11-02T09:32:05.812Z,8.18
2018-11-02T09:33:05.818Z,8.2
2018-11-02T09:34:06.106Z,8.16
2018-11-02T09:35:06.261Z,8.19
2018-11-02T09:36:05.807Z,8.2
2018-11-02T09:37:05.860Z,8.28
2018-11-02T09:38:05.914Z,8.26
2018-11-02T09:39:06.201Z,8.21
2018-11-02T09:40:06.069Z,8.07
2018-11-02T09:41:05.878Z,8.05
2018-11-02T09:42:07.270Z,8.14
2018-11-02T09:43:06.332Z,8.21
2018-11-02T09:44:06.022Z,8.01
2018-11-02T09:45:05.815Z,7.85
2018-11-02T09:46:05.871Z,7.84
2018-11-02T09:47:06.182Z,7.87
2018-11-02T09:48:06.079Z,8.01
2018-11-02T09:49:05.894Z,8.05
2018-11-02T09:50:05.864Z,7.96
2018-11-02T09:51:05.848Z,7.94
2018-11-02T09:52:07.892Z,7.99
2018-11-02T09:53:05.817Z,8.12
2018-11-02T09:54:05.865Z,7.9
2018-11-02T09:55:05.807Z,8.08
2018-11-02T09:56:05.809Z,8.02
2018-11-02T09:57:06.195Z,8.08
2018-11-02T09:58:06.133Z,7.77
2018-11-02T09:59:06.148Z,7.73
2018-11-02T10:00:05.965Z,7.79
2018-11-02T10:01:05.816Z,8.08
2018-11-02T10:02:07.505Z,8.12
2018-11-02T10:03:05.763Z,8.16
2018-11-02T10:04:05.837Z,8.17
2018-11-02T10:05:05.872Z,8.13
2018-11-02T10:06:05.928Z,8.04
2018-11-02T10:07:05.850Z,7.96
2018-11-02T10:08:06.128Z,8
2018-11-02T10:09:06.400Z,8.04
2018-11-02T10:10:06.157Z,8.1
2018-11-02T10:11:05.787Z,8.11
2018-11-02T10:12:07.330Z,8.29
2018-11-02T10:13:06.211Z,8.17
2018-11-02T10:14:06.181Z,8.14
2018-11-02T10:15:06.150Z,8.15
2018-11-02T10:16:05.881Z,7.81
2018-11-02T10:17:05.884Z,7.8
2018-11-02T10:18:05.873Z,7.92
2018-11-02T10:19:05.836Z,8.04
2018-11-02T10:20:05.917Z,8.18
2018-11-02T10:21:05.839Z,8.26
2018-11-02T10:22:07.260Z,8.27
2018-11-02T10:23:05.921Z,8.02
2018-11-02T10:24:05.889Z,8.02
2018-11-02T10:25:05.886Z,8.12
2018-11-02T10:26:06.100Z,8.16
2018-11-02T10:27:05.854Z,7.95
2018-11-02T10:28:06.138Z,7.91
2018-11-02T10:29:05.915Z,8.07
2018-11-02T10:30:05.772Z,8.05
2018-11-02T10:31:05.797Z,8.22
2018-11-02T10:32:06.981Z,8.06
2018-11-02T10:33:06.264Z,8.25
2018-11-02T10:34:05.881Z,8.27
2018-11-02T10:35:05.885Z,8.25
2018-11-02T10:36:06.465Z,8.21
2018-11-02T10:37:05.816Z,8.2
2018-11-02T10:38:06.029Z,8.28
2018-11-02T10:39:05.777Z,8.36
2018-11-02T10:40:05.803Z,8.4
2018-11-02T10:41:05.750Z,8.01
2018-11-02T10:42:06.782Z,7.73
2018-11-02T10:43:05.815Z,7.63
2018-11-02T10:44:06.050Z,7.65
2018-11-02T10:45:06.697Z,7.59
2018-11-02T10:46:05.848Z,7.79
2018-11-02T10:47:05.741Z,7.9
2018-11-02T10:48:05.815Z,7.8
2018-11-02T10:49:06.095Z,7.86
2018-11-02T10:50:05.751Z,7.95
2018-11-02T10:51:06.020Z,7.77
2018-11-02T10:52:07.266Z,7.56
2018-11-02T10:53:05.750Z,7.73
2018-11-02T10:54:05.869Z,7.95
2018-11-02T10:55:05.746Z,7.95
2018-11-02T10:56:05.833Z,7.87
2018-11-02T10:57:05.855Z,7.97
2018-11-02T10:58:05.910Z,8.14
2018-11-02T10:59:05.780Z,8.15
2018-11-02T11:00:05.742Z,8.27
2018-11-02T11:01:07.846Z,8.32
2018-11-02T11:02:07.335Z,8.35
2018-11-02T11:03:05.887Z,8.4
2018-11-02T11:04:05.765Z,8.31
2018-11-02T11:05:05.714Z,8.22
2018-11-02T11:06:05.756Z,8.13
2018-11-02T11:07:05.748Z,8.07
2018-11-02T11:08:06.191Z,8.21
2018-11-02T11:09:05.702Z,7.93
2018-11-02T11:10:05.728Z,8.13
2018-11-02T11:11:08.128Z,8.21
2018-11-02T11:12:07.917Z,8.28
2018-11-02T11:13:09.580Z,8.13
2018-11-02T11:14:05.896Z,8.26
2018-11-02T11:15:05.687Z,8.03
2018-11-02T11:16:05.733Z,8.24
2018-11-02T11:17:06.089Z,8.3
2018-11-02T11:18:05.762Z,8.07
2018-11-02T11:19:05.752Z,8.07
2018-11-02T11:20:06.139Z,8.29
2018-11-02T11:21:06.162Z,8.11
2018-11-02T11:22:07.226Z,7.96
2018-11-02T11:23:05.739Z,7.87
2018-11-02T11:24:05.798Z,7.74
2018-11-02T11:25:05.709Z,7.79
2018-11-02T11:26:05.915Z,7.93
2018-11-02T11:27:05.783Z,8.04
2018-11-02T11:28:05.772Z,8.12
2018-11-02T11:29:06.058Z,7.99
2018-11-02T11:30:05.738Z,8.02
2018-11-02T11:31:05.954Z,8.09
2018-11-02T11:32:07.344Z,7.89
2018-11-02T11:33:05.794Z,8.03
2018-11-02T11:34:05.927Z,8.11
2018-11-02T11:35:05.810Z,7.77
2018-11-02T11:36:05.757Z,7.96
2018-11-02T11:37:05.719Z,8.06
2018-11-02T11:38:05.763Z,8.24
2018-11-02T11:39:05.747Z,8.07
2018-11-02T11:40:05.858Z,8.18
2018-11-02T11:41:05.821Z,8.21
2018-11-02T11:42:05.770Z,8.04
2018-11-02T11:43:05.776Z,8.08
2018-11-02T11:44:05.730Z,7.96
2018-11-02T11:45:05.794Z,7.69
2018-11-02T11:46:05.834Z,7.81
2018-11-02T11:47:05.875Z,7.95
2018-11-02T11:48:06.054Z,8.09
2018-11-02T11:49:06.902Z,7.95
2018-11-02T11:50:05.714Z,7.98
2018-11-02T11:51:05.651Z,7.9
2018-11-02T11:52:05.709Z,7.96
2018-11-02T11:53:05.867Z,7.77
2018-11-02T11:54:05.827Z,7.77
2018-11-02T11:55:05.770Z,7.33
2018-11-02T11:56:05.674Z,7.59
2018-11-02T11:57:05.762Z,7.76
2018-11-02T11:58:05.874Z,8.09
2018-11-02T11:59:05.694Z,7.95
2018-11-02T12:00:05.729Z,7.92
2018-11-02T12:01:06.058Z,8.06
2018-11-02T12:02:06.191Z,7.94
2018-11-02T12:03:05.719Z,8.05
2018-11-02T12:04:05.911Z,8.11
2018-11-02T12:05:06.767Z,8.01
2018-11-02T12:06:05.744Z,8.03
2018-11-02T12:07:05.612Z,8.08
2018-11-02T12:08:05.688Z,8.17
2018-11-02T12:09:06.129Z,8.2
2018-11-02T12:10:05.939Z,8.09
2018-11-02T12:11:05.680Z,8.25
2018-11-02T12:12:05.632Z,8.17
2018-11-02T12:13:05.996Z,8.21
2018-11-02T12:14:05.722Z,7.97
2018-11-02T12:15:05.598Z,7.82
2018-11-02T12:16:06.947Z,7.75
2018-11-02T12:17:05.614Z,7.88
2018-11-02T12:18:05.617Z,8.04
2018-11-02T12:19:05.625Z,8.02
2018-11-02T12:20:05.660Z,8.15
2018-11-02T12:21:05.696Z,8.24
2018-11-02T12:22:05.710Z,8.22
2018-11-02T12:23:05.917Z,8.21
2018-11-02T12:24:05.675Z,8.11
2018-11-02T12:25:05.582Z,7.93
2018-11-02T12:26:05.706Z,8.01
2018-11-02T12:27:05.667Z,7.94
2018-11-02T12:28:06.065Z,8.07
2018-11-02T12:29:06.003Z,7.93
2018-11-02T12:30:05.704Z,7.26
2018-11-02T12:31:05.609Z,6.95
2018-11-02T12:32:06.854Z,7.02
2018-11-02T12:33:05.662Z,7.09
2018-11-02T12:34:05.595Z,7.24
2018-11-02T12:35:05.670Z,7.4
2018-11-02T12:36:05.633Z,7.52
2018-11-02T12:37:06.231Z,7.75
2018-11-02T12:38:05.730Z,7.66
2018-11-02T12:39:05.881Z,7.73
2018-11-02T12:40:05.731Z,7.71
2018-11-02T12:41:05.639Z,7.66
2018-11-02T12:42:07.029Z,7.72
2018-11-02T12:43:05.956Z,7.89
2018-11-02T12:44:05.802Z,7.73
2018-11-02T12:45:06.066Z,7.78
2018-11-02T12:46:05.862Z,7.8
2018-11-02T12:47:05.579Z,7.9
2018-11-02T12:48:07.182Z,8.1
2018-11-02T12:49:08.472Z,8.1
2018-11-02T12:50:06.299Z,8.37
2018-11-02T12:51:05.564Z,8.38
2018-11-02T12:52:06.996Z,8.28
2018-11-02T12:53:05.646Z,8.36
2018-11-02T12:54:05.776Z,8.37
2018-11-02T12:55:05.567Z,8.51
2018-11-02T12:56:05.579Z,8.48
2018-11-02T12:57:05.717Z,8.46
2018-11-02T12:58:05.580Z,8.38
2018-11-02T12:59:05.635Z,8.4
2018-11-02T13:00:05.559Z,8.42
2018-11-02T13:01:05.719Z,8.55
2018-11-02T13:02:05.924Z,8.49
2018-11-02T13:03:05.567Z,8.38
2018-11-02T13:04:05.572Z,8.52
2018-11-02T13:05:05.920Z,8.36
2018-11-02T13:06:05.717Z,8.26
2018-11-02T13:07:05.985Z,8.02
2018-11-02T13:08:05.609Z,7.73
2018-11-02T13:09:05.572Z,7.92
2018-11-02T13:10:05.621Z,7.83
2018-11-02T13:11:05.544Z,7.98
2018-11-02T13:12:05.820Z,7.91
2018-11-02T13:13:05.701Z,7.9
2018-11-02T13:14:05.525Z,7.66
2018-11-02T13:15:05.850Z,7.5
2018-11-02T13:16:06.192Z,7.63
2018-11-02T13:17:05.589Z,7.53
2018-11-02T13:18:05.811Z,7.6
2018-11-02T13:19:05.655Z,7.52
2018-11-02T13:20:06.441Z,7.47
2018-11-02T13:21:05.692Z,7.51